Time;durP1;ratioP1;P1;durP2;ratioP2;P2;SDS_P1;SDS_P2;PMS_P1;PMS_P2;Temp;Humidity;BMP_temperature;BMP_pressure;BME280_temperature;BME280_humidity;BME280_pressure;Samples;Min_cycle;Max_cycle;Signal;HPM_P1;HPM_P2
2021/05/24 00:00:52;;;;;;;3.00;1.33;;;;;;;15.11;50.41;99507.50;5012558;28;20053;-85
2021/05/24 00:03:18;;;;;;;3.92;1.13;;;;;;;15.09;50.34;99499.66;5011183;28;20462;-85
2021/05/24 00:05:45;;;;;;;2.28;0.95;;;;;;;15.08;50.13;99507.75;5011511;28;20061;-85
2021/05/24 00:08:11;;;;;;;1.80;0.93;;;;;;;15.07;50.10;99498.13;5013022;28;20056;-84
2021/05/24 00:10:41;;;;;;;1.65;0.95;;;;;;;15.04;49.90;99501.00;5012168;28;20137;-85
2021/05/24 00:13:10;;;;;;;2.28;1.17;;;;;;;15.03;49.98;99499.31;5011157;28;20526;-84
2021/05/24 00:15:41;;;;;;;2.38;1.08;;;;;;;14.99;49.80;99496.06;5010591;28;20419;-85
2021/05/24 00:18:08;;;;;;;2.85;1.25;;;;;;;14.99;50.08;99498.69;4998246;28;20088;-84
2021/05/24 00:20:44;;;;;;;3.63;1.23;;;;;;;14.94;48.69;99492.94;5011465;28;20055;-84
2021/05/24 00:23:11;;;;;;;3.28;1.50;;;;;;;14.94;50.18;99491.13;5012401;28;20077;-85
2021/05/24 00:25:38;;;;;;;3.97;1.23;;;;;;;14.92;49.79;99493.06;5011432;28;20514;-85
2021/05/24 00:28:06;;;;;;;4.28;1.02;;;;;;;14.91;50.10;99482.59;5013099;28;20045;-84
2021/05/24 00:30:33;;;;;;;3.72;1.08;;;;;;;14.91;50.16;99482.59;5009707;28;20049;-84
2021/05/24 00:33:01;;;;;;;2.67;1.20;;;;;;;14.88;50.11;99475.72;4992631;28;20050;-84
2021/05/24 00:35:28;;;;;;;2.72;1.10;;;;;;;14.87;50.08;99471.38;4993040;28;20050;-84
2021/05/24 00:37:54;;;;;;;2.45;0.77;;;;;;;14.86;49.95;99467.06;4992846;28;20067;-84
2021/05/24 00:40:21;;;;;;;5.60;1.00;;;;;;;14.84;50.01;99463.69;4991478;28;20050;-85
2021/05/24 00:42:48;;;;;;;1.48;0.80;;;;;;;14.82;49.86;99460.31;4992447;28;20504;-84
2021/05/24 00:45:16;;;;;;;1.63;0.90;;;;;;;14.82;49.99;99460.31;4997023;28;20057;-84
2021/05/24 00:47:42;;;;;;;3.03;0.95;;;;;;;14.81;49.81;99456.00;5012150;28;20080;-85
2021/05/24 00:50:10;;;;;;;3.40;0.90;;;;;;;14.79;49.96;99453.47;5012115;28;20045;-85
2021/05/24 00:52:38;;;;;;;3.67;1.20;;;;;;;14.80;49.81;99449.00;5010657;28;20065;-85
2021/05/24 00:55:07;;;;;;;2.35;1.20;;;;;;;14.78;49.73;99448.28;5012382;28;20045;-84
2021/05/24 00:57:35;;;;;;;2.50;0.95;;;;;;;14.78;50.06;99445.63;5010856;28;20062;-85
2021/05/24 01:00:05;;;;;;;2.13;0.88;;;;;;;14.75;49.88;99443.19;5010685;28;20114;-85
2021/05/24 01:02:32;;;;;;;3.78;0.90;;;;;;;14.75;49.93;99440.53;5001910;28;20054;-84
2021/05/24 01:04:58;;;;;;;2.70;1.15;;;;;;;14.72;49.79;99426.56;4991455;28;20062;-85
2021/05/24 01:07:25;;;;;;;1.83;0.77;;;;;;;14.70;49.91;99425.03;4992650;28;20050;-84
2021/05/24 01:09:52;;;;;;;3.92;0.98;;;;;;;14.69;49.67;99426.81;4992562;28;20061;-84
2021/05/24 01:12:19;;;;;;;1.38;0.75;;;;;;;14.67;49.90;99423.47;4991314;28;20058;-85
2021/05/24 01:14:45;;;;;;;4.95;0.80;;;;;;;14.65;49.79;99420.06;4995618;28;20046;-84
2021/05/24 01:17:12;;;;;;;3.80;1.00;;;;;;;14.64;49.97;99409.59;4996335;28;20054;-84
2021/05/24 01:19:47;;;;;;;0.73;0.60;;;;;;;14.59;49.27;99418.75;4995237;28;20057;-84
2021/05/24 01:22:17;;;;;;;1.88;0.82;;;;;;;14.61;49.72;99415.97;4995849;28;20061;-84
2021/05/24 01:24:44;;;;;;;2.20;0.85;;;;;;;14.58;49.66;99414.41;4994599;28;20412;-84
2021/05/24 01:27:11;;;;;;;3.72;0.90;;;;;;;14.58;49.92;99410.94;4994653;28;20053;-84
2021/05/24 01:29:38;;;;;;;1.55;0.77;;;;;;;14.56;49.75;99415.50;4995841;28;20519;-85
2021/05/24 01:32:06;;;;;;;3.72;1.00;;;;;;;14.54;49.88;99404.22;4996022;28;20062;-84
2021/05/24 01:34:34;;;;;;;2.70;0.90;;;;;;;14.52;49.86;99409.63;4996167;28;20057;-85
2021/05/24 01:37:03;;;;;;;2.13;0.82;;;;;;;14.49;49.61;99399.28;4994970;28;20061;-84
2021/05/24 01:39:30;;;;;;;1.92;0.90;;;;;;;14.48;49.87;99404.69;4996240;28;20054;-84
2021/05/24 01:41:57;;;;;;;1.33;0.80;;;;;;;14.45;49.86;99392.53;4995674;28;20487;-84
2021/05/24 01:44:35;;;;;;;3.38;0.82;;;;;;;14.40;49.38;99392.91;4994585;28;20058;-84
2021/05/24 01:47:02;;;;;;;3.08;0.70;;;;;;;14.42;49.87;99398.06;4994317;28;20054;-84
2021/05/24 01:49:30;;;;;;;3.97;1.33;;;;;;;14.40;50.05;99390.25;4994108;28;20511;-84
2021/05/24 01:51:57;;;;;;;1.63;1.00;;;;;;;14.38;50.21;99380.72;4996483;28;20046;-84
2021/05/24 01:54:24;;;;;;;2.60;0.85;;;;;;;14.38;50.50;99384.22;4993743;28;20435;-85
2021/05/24 01:56:51;;;;;;;3.25;0.80;;;;;;;14.36;50.26;99386.19;4995491;28;20046;-84
2021/05/24 01:59:18;;;;;;;3.17;0.93;;;;;;;14.35;50.25;99375.69;4997029;28;20050;-84
2021/05/24 02:01:44;;;;;;;3.75;0.93;;;;;;;14.33;50.49;99373.16;4995520;28;20507;-84
2021/05/24 02:04:13;;;;;;;1.05;0.68;;;;;;;14.30;50.17;99376.91;4995200;28;20073;-85
2021/05/24 02:06:40;;;;;;;4.82;1.00;;;;;;;14.28;50.48;99367.41;4995247;28;20500;-84
2021/05/24 02:09:06;;;;;;;2.72;0.93;;;;;;;14.25;50.44;99365.84;4998091;28;20054;-86
2021/05/24 02:11:33;;;;;;;2.92;0.85;;;;;;;14.22;50.40;99365.22;4993577;28;20514;-84
2021/05/24 02:14:00;;;;;;;2.65;0.85;;;;;;;14.22;50.75;99365.22;4994900;28;20054;-84
2021/05/24 02:16:37;;;;;;;2.10;1.02;;;;;;;14.16;50.33;99364.75;4994998;28;20050;-84
2021/05/24 02:19:04;;;;;;;1.40;0.63;;;;;;;14.20;50.93;99362.69;4994194;28;20073;-84
2021/05/24 02:21:31;;;;;;;2.97;0.70;;;;;;;14.16;50.92;99359.44;4994754;28;20191;-84
2021/05/24 02:23:58;;;;;;;1.80;0.90;;;;;;;14.15;50.87;99362.22;4994763;28;20073;-84
2021/05/24 02:26:24;;;;;;;2.20;1.00;;;;;;;14.14;51.19;99357.88;4994383;28;20066;-84
2021/05/24 02:28:51;;;;;;;1.63;0.88;;;;;;;14.13;51.25;99354.38;4994657;28;20050;-84
2021/05/24 02:31:20;;;;;;;2.28;0.77;;;;;;;14.13;51.02;99353.56;4993192;28;20054;-84
2021/05/24 02:33:47;;;;;;;3.33;0.93;;;;;;;14.11;51.24;99345.75;4993752;28;20488;-84
2021/05/24 02:36:14;;;;;;;1.20;0.70;;;;;;;14.12;51.46;99354.50;4992383;28;20066;-85
2021/05/24 02:38:43;;;;;;;1.58;0.90;;;;;;;14.11;51.60;99356.34;4993293;28;20054;-84
2021/05/24 02:41:10;;;;;;;1.65;0.80;;;;;;;14.12;51.60;99347.41;4998349;28;20495;-84
2021/05/24 02:43:36;;;;;;;2.33;0.80;;;;;;;14.12;51.52;99358.00;5003141;28;20109;-84
2021/05/24 02:46:03;;;;;;;2.40;0.70;;;;;;;14.11;51.79;99345.75;4993611;28;20057;-84
2021/05/24 02:48:29;;;;;;;2.47;0.57;;;;;;;14.12;51.50;99336.84;4994739;28;20113;-84
2021/05/24 02:50:56;;;;;;;2.17;0.88;;;;;;;14.12;51.41;99344.78;4994775;28;20058;-84
2021/05/24 02:53:23;;;;;;;2.30;0.80;;;;;;;14.13;51.76;99340.34;4993035;28;20523;-85
2021/05/24 02:55:49;;;;;;;3.25;0.77;;;;;;;14.12;51.73;99336.84;4994176;28;20062;-84
2021/05/24 02:58:16;;;;;;;2.50;0.80;;;;;;;14.12;51.59;99336.84;4995301;28;20050;-84
2021/05/24 03:00:43;;;;;;;1.35;0.80;;;;;;;14.13;51.78;99335.03;4994413;28;20070;-85
2021/05/24 03:03:12;;;;;;;2.75;0.88;;;;;;;14.12;51.74;99320.94;4994555;28;20053;-84
2021/05/24 03:05:39;;;;;;;1.33;0.85;;;;;;;14.11;51.65;99329.00;4993906;28;20507;-85
2021/05/24 03:08:06;;;;;;;5.22;0.80;;;;;;;14.09;51.70;99320.38;4994063;28;20054;-84
2021/05/24 03:10:33;;;;;;;3.03;0.90;;;;;;;14.06;51.76;99314.34;4993893;28;20445;-84
2021/05/24 03:12:59;;;;;;;3.60;0.95;;;;;;;14.06;51.70;99310.88;4993887;28;20078;-85
2021/05/24 03:15:26;;;;;;;1.83;0.77;;;;;;;14.05;51.88;99309.16;4992745;28;20076;-84
2021/05/24 03:17:53;;;;;;;2.50;1.10;;;;;;;14.03;52.08;99311.94;4994066;28;20492;-84
2021/05/24 03:20:20;;;;;;;3.80;1.05;;;;;;;14.03;52.06;99303.16;4992816;28;20050;-84
2021/05/24 03:22:47;;;;;;;2.58;0.90;;;;;;;14.03;52.17;99311.94;4992608;28;20058;-85
2021/05/24 03:25:16;;;;;;;1.73;0.80;;;;;;;14.03;52.35;99311.94;4993720;28;20053;-84
2021/05/24 03:27:42;;;;;;;4.00;0.70;;;;;;;14.04;52.26;99302.19;4993974;28;20058;-84
2021/05/24 03:30:10;;;;;;;1.88;0.75;;;;;;;14.03;52.46;99304.00;4993553;28;20451;-85
2021/05/24 03:32:37;;;;;;;2.53;0.75;;;;;;;14.03;52.17;99309.31;4992571;28;20060;-85
2021/05/24 03:35:06;;;;;;;3.58;0.60;;;;;;;14.03;52.26;99305.81;4993549;28;20053;-85
2021/05/24 03:37:32;;;;;;;1.77;0.90;;;;;;;14.03;52.38;99308.44;4992910;28;20054;-84
2021/05/24 03:40:00;;;;;;;1.58;0.80;;;;;;;14.03;52.16;99300.50;4993140;28;20054;-83
2021/05/24 03:42:27;;;;;;;1.60;0.80;;;;;;;14.04;52.41;99296.91;4996583;28;20065;-85
2021/05/24 03:44:53;;;;;;;1.80;0.80;;;;;;;14.04;52.42;99288.97;4993409;28;20054;-84
2021/05/24 03:47:20;;;;;;;1.67;0.70;;;;;;;14.04;52.68;99291.59;4993622;28;20443;-85
2021/05/24 03:49:46;;;;;;;2.92;0.73;;;;;;;14.04;52.55;99307.47;5005093;28;20057;-85
2021/05/24 03:52:15;;;;;;;3.70;0.90;;;;;;;14.04;52.41;99287.16;5012760;28;20141;-84
2021/05/24 03:54:42;;;;;;;2.38;0.90;;;;;;;14.04;52.55;99289.81;5011313;28;20510;-84
2021/05/24 03:57:10;;;;;;;2.58;0.70;;;;;;;14.03;52.73;99285.50;5012508;28;20054;-85
2021/05/24 03:59:37;;;;;;;4.10;0.90;;;;;;;14.04;52.59;99291.59;5011324;28;20049;-84
2021/05/24 04:02:04;;;;;;;1.63;0.57;;;;;;;14.02;52.58;99289.06;5011171;28;20499;-84
2021/05/24 04:04:31;;;;;;;1.50;0.70;;;;;;;14.01;52.55;99290.03;5012659;28;20049;-84
2021/05/24 04:07:01;;;;;;;1.95;0.80;;;;;;;14.01;52.55;99289.19;5012747;28;20104;-84
2021/05/24 04:09:28;;;;;;;3.78;1.02;;;;;;;14.01;52.64;99289.19;5011762;28;20073;-83
2021/05/24 04:11:54;;;;;;;2.05;0.63;;;;;;;14.00;52.70;99290.16;5012401;28;20053;-84
2021/05/24 04:14:21;;;;;;;4.10;0.80;;;;;;;14.01;52.84;99289.19;5012648;28;20487;-84
2021/05/24 04:16:48;;;;;;;3.78;0.98;;;;;;;13.99;52.84;99277.91;5012619;28;20046;-84
2021/05/24 04:19:14;;;;;;;0.80;0.60;;;;;;;14.00;53.12;99275.13;5012717;28;20064;-85
2021/05/24 04:21:43;;;;;;;2.85;0.60;;;;;;;13.99;52.91;99272.59;5012782;28;20068;-84
2021/05/24 04:24:11;;;;;;;2.45;1.08;;;;;;;14.00;52.96;99275.13;5011623;28;20463;-84
2021/05/24 04:26:39;;;;;;;2.22;0.90;;;;;;;14.01;52.79;99270.66;5012385;28;20050;-84
2021/05/24 04:29:06;;;;;;;1.83;0.82;;;;;;;14.03;53.06;99268.75;5011246;28;20054;-84
2021/05/24 04:31:34;;;;;;;1.40;0.75;;;;;;;14.04;53.18;99275.72;5012279;28;20499;-84
2021/05/24 04:34:01;;;;;;;1.48;0.68;;;;;;;14.04;53.05;99268.63;5011067;28;20053;-84
2021/05/24 04:36:28;;;;;;;1.55;0.77;;;;;;;14.06;53.25;99263.22;5012800;28;20419;-84
2021/05/24 04:38:55;;;;;;;1.48;0.75;;;;;;;14.06;53.42;99268.53;5011156;28;20057;-84
2021/05/24 04:41:21;;;;;;;2.40;0.93;;;;;;;14.09;53.33;99268.25;5012288;28;20054;-84
2021/05/24 04:43:49;;;;;;;2.38;0.75;;;;;;;14.13;53.62;99268.88;5010713;28;20054;-85
2021/05/24 04:46:16;;;;;;;1.15;0.50;;;;;;;14.16;53.61;99266.81;5012202;28;20487;-85
2021/05/24 04:48:43;;;;;;;4.07;0.65;;;;;;;14.18;53.41;99264.91;5012405;28;20104;-84
2021/05/24 04:51:09;;;;;;;2.40;0.80;;;;;;;14.23;53.53;99267.16;5004504;28;20054;-84
2021/05/24 04:53:36;;;;;;;3.90;0.80;;;;;;;14.26;53.54;99266.06;4992576;28;20101;-84
2021/05/24 04:56:02;;;;;;;2.80;0.80;;;;;;;14.28;53.33;99258.84;4991167;28;20049;-84
2021/05/24 04:58:29;;;;;;;2.10;0.70;;;;;;;14.28;53.28;99262.31;4992511;28;20050;-84
2021/05/24 05:00:57;;;;;;;1.42;0.52;;;;;;;14.29;53.01;99263.19;4992414;28;20054;-84
2021/05/24 05:03:24;;;;;;;2.63;0.82;;;;;;;14.28;53.45;99258.84;4992390;28;20056;-85
2021/05/24 05:05:51;;;;;;;2.05;0.75;;;;;;;14.27;53.18;99257.16;5002960;28;20038;-85
2021/05/24 05:08:18;;;;;;;2.88;0.80;;;;;;;14.25;53.29;99259.09;5011998;28;20542;-85
2021/05/24 05:10:46;;;;;;;3.65;0.88;;;;;;;14.24;53.34;99249.47;5012127;28;20062;-84
2021/05/24 05:13:12;;;;;;;3.22;0.65;;;;;;;14.23;53.60;99259.22;5012174;28;20084;-84
2021/05/24 05:15:39;;;;;;;2.22;0.60;;;;;;;14.23;53.38;99256.56;5010230;28;20053;-85
2021/05/24 05:18:05;;;;;;;2.90;0.80;;;;;;;14.24;53.55;99252.94;5012052;28;20423;-84
2021/05/24 05:20:32;;;;;;;3.63;0.70;;;;;;;14.23;53.47;99248.63;4995043;28;20058;-84
2021/05/24 05:22:59;;;;;;;3.70;0.65;;;;;;;14.24;53.50;99246.84;4990792;28;20054;-85
2021/05/24 05:25:25;;;;;;;1.90;0.60;;;;;;;14.25;53.87;99261.75;4992126;28;20061;-85
2021/05/24 05:27:52;;;;;;;1.50;0.60;;;;;;;14.25;53.97;99264.38;4990575;28;20054;-85
2021/05/24 05:30:19;;;;;;;2.20;0.60;;;;;;;14.27;53.92;99255.34;4991024;28;20441;-85
2021/05/24 05:32:46;;;;;;;0.73;0.50;;;;;;;14.30;54.16;99256.91;4990296;28;20062;-85
2021/05/24 05:35:14;;;;;;;2.35;0.80;;;;;;;14.31;54.19;99248.84;4991834;28;20050;-86
2021/05/24 05:37:42;;;;;;;0.95;0.60;;;;;;;14.35;54.17;99251.25;4990992;28;20526;-85
2021/05/24 05:40:15;;;;;;;1.30;0.60;;;;;;;14.37;54.23;99251.97;4991881;28;20492;-84
2021/05/24 05:42:41;;;;;;;;;;;;;;;14.41;53.65;99251.59;4991219;28;20058;-85
2021/05/24 05:45:09;;;;;;;1.50;0.60;;;;;;;14.48;54.42;99249.28;4991836;28;19929;-85
2021/05/24 05:47:36;;;;;;;2.60;0.70;;;;;;;14.50;54.08;99251.81;4997523;28;20422;-85
2021/05/24 05:50:04;;;;;;;5.00;0.98;;;;;;;14.49;53.92;99245.66;5010476;28;20077;-85
2021/05/24 05:52:34;;;;;;;0.90;0.60;;;;;;;14.52;53.98;99245.44;5011628;28;20060;-86
2021/05/24 05:55:03;;;;;;;3.05;0.60;;;;;;;14.54;54.18;99246.13;5011145;28;20053;-86
2021/05/24 05:57:29;;;;;;;3.30;0.70;;;;;;;14.58;54.32;99246.75;5011596;28;20057;-86
2021/05/24 05:59:56;;;;;;;4.18;0.70;;;;;;;14.63;54.52;99243.69;5011799;28;20419;-85
2021/05/24 06:02:23;;;;;;;4.25;1.05;;;;;;;14.66;54.38;99244.28;5002093;28;20046;-85
2021/05/24 06:04:50;;;;;;;1.95;0.90;;;;;;;14.71;54.51;99242.09;4993603;28;20050;-85
2021/05/24 06:07:17;;;;;;;3.70;0.90;;;;;;;14.79;54.40;99243.28;4995498;28;20050;-87
2021/05/24 06:09:44;;;;;;;1.70;0.85;;;;;;;14.83;54.58;99244.72;4994387;28;20054;-87
2021/05/24 06:12:10;;;;;;;4.18;0.60;;;;;;;14.90;54.45;99239.75;4995012;28;20058;-87
2021/05/24 06:14:37;;;;;;;2.45;0.82;;;;;;;14.94;54.39;99236.72;4994267;28;20050;-87
2021/05/24 06:17:05;;;;;;;1.65;0.73;;;;;;;15.00;54.16;99229.22;4994123;28;20419;-87
2021/05/24 06:19:32;;;;;;;1.45;0.70;;;;;;;15.06;54.24;99234.03;4995033;28;20058;-88
2021/05/24 06:21:59;;;;;;;2.97;0.80;;;;;;;15.12;54.11;99241.44;4993562;28;20061;-87
2021/05/24 06:24:25;;;;;;;1.45;0.65;;;;;;;15.16;54.24;99229.59;4995350;28;20058;-87
2021/05/24 06:26:52;;;;;;;2.20;0.60;;;;;;;15.21;54.29;99226.53;4993849;28;20068;-87
2021/05/24 06:29:23;;;;;;;1.15;0.50;;;;;;;15.25;54.46;99227.97;4993507;28;20051;-87
2021/05/24 06:31:52;;;;;;;2.90;0.70;;;;;;;15.32;54.37;99230.94;4993735;28;20050;-87
2021/05/24 06:34:19;;;;;;;2.45;0.80;;;;;;;15.38;54.26;99217.16;4993585;28;20108;-86
2021/05/24 06:36:46;;;;;;;4.10;1.10;;;;;;;15.44;54.00;99213.16;4994895;28;20424;-87
2021/05/24 06:39:13;;;;;;;1.58;0.90;;;;;;;15.50;54.20;99218.75;4994575;28;20512;-87
2021/05/24 06:41:40;;;;;;;2.55;0.65;;;;;;;15.56;54.03;99212.09;4994457;28;20058;-86
2021/05/24 06:44:06;;;;;;;3.78;0.68;;;;;;;15.64;54.47;99212.22;4993365;28;20496;-87
2021/05/24 06:46:33;;;;;;;1.02;0.65;;;;;;;15.74;54.38;99212.28;4993522;28;20061;-87
2021/05/24 06:49:00;;;;;;;1.80;0.75;;;;;;;15.84;54.23;99211.47;4994406;28;20492;-87
2021/05/24 06:51:26;;;;;;;2.38;0.80;;;;;;;15.97;54.32;99206.81;4994443;28;20046;-85
2021/05/24 06:53:53;;;;;;;2.10;0.77;;;;;;;16.08;53.87;99212.97;4994117;28;20066;-86
2021/05/24 06:56:20;;;;;;;2.13;0.70;;;;;;;16.20;53.64;99221.63;4994302;28;20050;-86
2021/05/24 06:58:47;;;;;;;2.63;0.73;;;;;;;16.30;53.49;99201.28;4993085;28;20050;-86
2021/05/24 07:01:14;;;;;;;1.92;0.60;;;;;;;16.38;53.48;99203.22;4994392;28;20058;-87
2021/05/24 07:03:41;;;;;;;1.85;0.60;;;;;;;16.46;53.13;99205.19;4994214;28;20058;-86
2021/05/24 07:06:07;;;;;;;0.45;0.45;;;;;;;16.52;53.00;99189.50;4993783;28;20046;-86
2021/05/24 07:08:34;;;;;;;5.13;0.70;;;;;;;16.58;52.96;99189.94;4992643;28;20412;-86
2021/05/24 07:11:01;;;;;;;4.82;0.85;;;;;;;16.63;52.87;99185.06;4993519;28;20524;-87
2021/05/24 07:13:27;;;;;;;4.40;0.63;;;;;;;16.65;53.08;99189.25;4994313;28;20079;-87
2021/05/24 07:15:54;;;;;;;2.95;0.60;;;;;;;16.69;52.94;99195.09;4993865;28;20515;-87
2021/05/24 07:18:21;;;;;;;1.05;0.60;;;;;;;16.72;53.08;99183.34;4992794;28;20104;-87
2021/05/24 07:20:48;;;;;;;2.78;0.75;;;;;;;16.76;53.00;99180.28;4994068;28;20148;-87
2021/05/24 07:23:15;;;;;;;1.75;0.68;;;;;;;16.80;52.91;99187.00;4993902;28;20058;-87
2021/05/24 07:25:42;;;;;;;1.50;0.63;;;;;;;16.85;53.22;99188.38;5010885;28;20467;-87
2021/05/24 07:28:09;;;;;;;2.20;0.70;;;;;;;16.89;52.97;99181.78;5013432;28;20049;-86
2021/05/24 07:30:36;;;;;;;1.85;0.65;;;;;;;16.93;52.86;99172.53;5013438;28;20054;-86
2021/05/24 07:33:03;;;;;;;3.67;0.93;;;;;;;16.99;52.59;99192.41;5013596;28;20060;-86
2021/05/24 07:35:30;;;;;;;2.20;0.70;;;;;;;17.05;52.50;99175.91;5012171;28;20046;-86
2021/05/24 07:37:57;;;;;;;0.85;0.52;;;;;;;17.12;52.59;99162.88;5011894;28;20050;-86
2021/05/24 07:40:23;;;;;;;3.85;0.60;;;;;;;17.18;52.29;99167.59;5012001;28;20057;-86
2021/05/24 07:42:50;;;;;;;2.03;0.98;;;;;;;17.25;52.36;99174.03;5013068;28;20049;-87
2021/05/24 07:45:17;;;;;;;1.73;0.57;;;;;;;17.32;52.13;99167.13;5013364;28;20050;-86
2021/05/24 07:47:43;;;;;;;2.42;0.70;;;;;;;17.39;51.93;99169.22;5012077;28;20518;-87
2021/05/24 07:50:10;;;;;;;2.53;0.80;;;;;;;17.47;51.70;99152.50;5013357;28;20057;-87
2021/05/24 07:52:37;;;;;;;1.23;0.52;;;;;;;17.55;51.39;99155.28;5013650;28;20422;-87
2021/05/24 07:55:05;;;;;;;3.60;0.73;;;;;;;17.63;51.21;99163.34;5013037;28;20113;-87
2021/05/24 07:57:33;;;;;;;1.90;0.60;;;;;;;17.70;50.99;99145.81;5012408;28;20073;-88
2021/05/24 07:59:59;;;;;;;1.90;0.63;;;;;;;17.79;50.13;99153.91;5013055;28;20061;-87
2021/05/24 08:02:26;;;;;;;2.58;0.60;;;;;;;17.85;50.17;99153.28;5012613;28;20062;-86
2021/05/24 08:04:52;;;;;;;1.85;0.65;;;;;;;17.92;49.99;99151.72;5011700;28;20061;-87
2021/05/24 08:07:19;;;;;;;1.67;0.70;;;;;;;18.00;49.91;99150.94;5011723;28;20046;-87
2021/05/24 08:09:46;;;;;;;2.40;0.70;;;;;;;18.06;50.34;99149.50;5011839;28;20396;-86
2021/05/24 08:12:13;;;;;;;2.55;0.70;;;;;;;18.15;50.32;99147.78;5011455;28;20158;-86
2021/05/24 08:14:39;;;;;;;2.42;0.70;;;;;;;18.23;49.85;99143.38;5012781;28;20145;-87
2021/05/24 08:17:06;;;;;;;1.45;0.63;;;;;;;18.28;48.93;99136.75;5012471;28;20050;-86
2021/05/24 08:19:33;;;;;;;5.65;0.50;;;;;;;18.34;48.04;99130.81;5011232;28;20061;-86
2021/05/24 08:21:59;;;;;;;1.67;0.65;;;;;;;18.44;49.17;99114.75;5012536;28;20072;-87
2021/05/24 08:24:26;;;;;;;1.95;0.70;;;;;;;18.53;49.11;99128.94;5012032;28;20058;-87
2021/05/24 08:26:53;;;;;;;1.27;0.60;;;;;;;18.61;48.96;99137.00;5012015;28;20042;-86
2021/05/24 08:29:20;;;;;;;2.72;0.57;;;;;;;18.71;48.81;99119.09;5012130;28;20092;-87
2021/05/24 08:31:47;;;;;;;3.08;0.70;;;;;;;18.81;48.93;99111.00;5012417;28;20050;-88
2021/05/24 08:34:13;;;;;;;1.65;0.60;;;;;;;18.93;48.83;99108.91;5012326;28;20053;-87
2021/05/24 08:36:42;;;;;;;3.63;0.93;;;;;;;19.07;49.58;99115.53;5011889;28;20046;-87
2021/05/24 08:39:09;;;;;;;2.38;0.80;;;;;;;19.20;49.42;99109.75;5012390;28;20458;-88
2021/05/24 08:41:37;;;;;;;3.05;0.90;;;;;;;19.35;48.77;99114.47;5010735;28;20064;-87
2021/05/24 08:44:06;;;;;;;1.58;0.85;;;;;;;19.47;47.84;99104.34;5005604;28;20066;-87
2021/05/24 08:46:33;;;;;;;1.15;0.50;;;;;;;19.55;47.38;99100.88;4991365;28;20057;-87
2021/05/24 08:49:00;;;;;;;0.68;0.47;;;;;;;19.65;47.53;99102.41;4992281;28;20504;-87
2021/05/24 08:51:26;;;;;;;2.25;0.70;;;;;;;19.74;47.84;99105.09;4992142;28;20500;-88
2021/05/24 08:53:53;;;;;;;3.03;0.57;;;;;;;19.85;48.21;99098.59;4991002;28;20134;-87
2021/05/24 08:56:20;;;;;;;3.05;0.70;;;;;;;19.99;47.67;99102.47;4991354;28;20054;-87
2021/05/24 08:58:46;;;;;;;2.10;0.63;;;;;;;20.13;46.96;99091.16;4991257;28;20046;-87
2021/05/24 09:01:13;;;;;;;1.65;0.50;;;;;;;20.27;47.30;99095.00;4992160;28;20057;-87
2021/05/24 09:03:42;;;;;;;1.58;0.50;;;;;;;20.39;46.02;99122.22;4992252;28;20050;-88
2021/05/24 09:06:11;;;;;;;1.35;0.63;;;;;;;20.50;45.90;99097.00;4992373;28;20046;-87
2021/05/24 09:08:40;;;;;;;0.47;0.40;;;;;;;20.62;46.44;99097.47;4992216;28;20065;-87
2021/05/24 09:11:29;;;;;;;2.70;0.52;;;;;;;20.68;42.45;99095.97;4991122;28;20051;-87
2021/05/24 09:13:56;;;;;;;1.30;0.68;;;;;;;20.79;44.84;99086.75;4994884;28;20420;-88
2021/05/24 09:16:31;;;;;;;2.50;0.60;;;;;;;20.78;43.99;99071.72;5011432;28;20119;-88
2021/05/24 09:19:15;;;;;;;2.30;0.90;;;;;;;20.79;44.04;99086.75;5011407;28;20057;-88
2021/05/24 09:21:57;;;;;;;2.70;0.60;;;;;;;20.79;44.16;99086.75;5011392;28;20137;-87
2021/05/24 09:24:30;;;;;;;0.85;0.43;;;;;;;20.83;44.07;99082.72;5010019;28;20499;-88
2021/05/24 09:26:59;;;;;;;1.98;0.50;;;;;;;20.82;43.34;99083.75;5010252;28;20049;-87
2021/05/24 09:29:40;;;;;;;4.15;0.70;;;;;;;20.78;42.15;99069.03;5011326;28;20050;-87
2021/05/24 09:32:21;;;;;;;5.70;0.68;;;;;;;20.72;39.67;99077.72;5010232;28;20104;-87
2021/05/24 09:34:49;;;;;;;5.75;0.70;;;;;;;20.70;41.42;99075.22;5012244;28;20045;-87
2021/05/24 09:37:18;;;;;;;2.30;0.57;;;;;;;20.62;41.06;99078.75;5013779;28;20046;-86
2021/05/24 09:39:45;;;;;;;2.63;0.90;;;;;;;20.53;40.98;99071.75;5014029;28;20058;-88
2021/05/24 09:42:14;;;;;;;5.72;0.90;;;;;;;20.49;42.61;99067.75;5015308;28;20050;-87
2021/05/24 09:44:46;;;;;;;2.22;1.02;;;;;;;20.46;41.61;99063.56;5014734;28;20053;-88
2021/05/24 09:47:13;;;;;;;1.33;0.60;;;;;;;20.51;42.06;99071.06;5012614;28;20050;-86
2021/05/24 09:49:44;;;;;;;4.47;0.60;;;;;;;20.53;42.11;99063.72;5001453;28;20515;-86
2021/05/24 09:52:10;;;;;;;1.48;0.50;;;;;;;20.57;42.92;99059.72;5013883;28;20064;-87
2021/05/24 09:54:38;;;;;;;3.00;0.68;;;;;;;20.59;42.92;99052.34;5013334;28;20515;-87
2021/05/24 09:57:15;;;;;;;2.20;0.75;;;;;;;20.62;42.75;99041.31;5013184;28;20054;-85
2021/05/24 09:59:43;;;;;;;3.50;0.75;;;;;;;20.74;42.93;99032.94;5014747;28;20060;-86
2021/05/24 10:02:12;;;;;;;2.03;0.60;;;;;;;20.82;42.65;99027.56;5014307;28;20504;-87
2021/05/24 10:04:39;;;;;;;3.00;0.80;;;;;;;20.90;41.79;99029.41;5012281;28;20054;-86
2021/05/24 10:07:06;;;;;;;2.97;0.55;;;;;;;20.93;41.40;99027.22;5013388;28;20046;-86
2021/05/24 10:09:35;;;;;;;0.93;0.50;;;;;;;20.93;41.09;99031.75;5014662;28;20570;-87
2021/05/24 10:12:04;;;;;;;4.03;0.80;;;;;;;20.86;40.44;99020.84;5014307;28;20049;-87
2021/05/24 10:14:31;;;;;;;2.50;0.75;;;;;;;20.80;41.22;99017.03;5014088;28;20133;-86
2021/05/24 10:17:02;;;;;;;3.95;0.70;;;;;;;20.70;40.69;99011.03;5014108;28;20506;-86
2021/05/24 10:19:30;;;;;;;1.40;0.65;;;;;;;20.60;40.26;99023.78;5013133;28;20057;-86
2021/05/24 10:21:59;;;;;;;3.70;0.70;;;;;;;20.49;40.98;99022.31;5008424;28;20054;-87
2021/05/24 10:24:26;;;;;;;6.30;0.80;;;;;;;20.41;41.26;99012.47;4994774;28;20436;-86
2021/05/24 10:26:56;;;;;;;3.22;0.60;;;;;;;20.30;39.54;99019.00;4994731;28;20101;-85
2021/05/24 10:29:23;;;;;;;5.07;0.93;;;;;;;20.25;40.84;99007.97;4994734;28;20054;-87
2021/05/24 10:31:50;;;;;;;2.22;0.80;;;;;;;20.22;40.31;99008.31;4994811;28;20058;-86
2021/05/24 10:34:19;;;;;;;5.63;1.00;;;;;;;20.19;40.12;99009.50;4994261;28;20146;-86
2021/05/24 10:37:12;;;;;;;1.98;0.70;;;;;;;20.15;40.94;99000.97;4998492;28;20064;-87
2021/05/24 10:39:54;;;;;;;1.85;0.60;;;;;;;20.20;41.04;98995.13;5013716;28;20550;-86
2021/05/24 10:42:44;;;;;;;2.50;0.67;;;;;;;20.25;41.27;99000.78;5013618;28;20521;-87
2021/05/24 10:45:22;;;;;;;3.30;0.70;;;;;;;20.34;41.21;99008.78;5012086;28;20132;-87
2021/05/24 10:47:54;;;;;;;1.85;0.80;;;;;;;20.44;41.93;99002.25;5013189;28;20046;-86
2021/05/24 10:50:22;;;;;;;1.80;0.90;;;;;;;20.53;41.44;99002.25;5013916;28;20060;-87
2021/05/24 10:53:20;;;;;;;2.90;0.63;;;;;;;20.57;40.47;98993.69;5011914;28;20069;-86
2021/05/24 10:55:49;;;;;;;1.70;0.80;;;;;;;20.69;40.99;98998.69;5010364;28;20515;-87
2021/05/24 10:58:17;;;;;;;2.13;0.65;;;;;;;20.78;41.53;99000.31;4994240;28;20529;-86
2021/05/24 11:01:01;;;;;;;2.63;0.75;;;;;;;20.82;41.05;98993.63;4993724;28;20054;-86
2021/05/24 11:03:30;;;;;;;2.35;0.80;;;;;;;20.91;41.29;98999.81;4993103;28;20062;-86
2021/05/24 11:06:06;;;;;;;2.92;0.90;;;;;;;20.91;39.74;98998.97;4993786;28;20054;-86
2021/05/24 11:08:35;;;;;;;0.80;0.60;;;;;;;20.94;40.60;98991.41;4993643;28;20057;-86
2021/05/24 11:11:18;;;;;;;2.30;0.65;;;;;;;20.88;39.70;98996.63;4994454;28;20069;-86
2021/05/24 11:14:00;;;;;;;2.50;0.77;;;;;;;20.86;40.51;98985.25;4992573;28;20061;-88
2021/05/24 11:16:28;;;;;;;1.08;0.50;;;;;;;20.83;40.81;98987.25;4992141;28;20512;-86
2021/05/24 11:19:14;;;;;;;1.40;0.63;;;;;;;20.68;39.15;98997.84;4993605;28;20085;-86
2021/05/24 11:21:56;;;;;;;2.45;0.80;;;;;;;20.70;41.36;98987.81;4992246;28;20050;-86
2021/05/24 11:27:18;;;;;;;3.30;0.85;;;;;;;20.70;40.38;98997.66;5000193;28;20116;-85
2021/05/24 11:29:48;;;;;;;3.13;0.80;;;;;;;20.76;40.53;98991.66;5004363;28;20054;-85
2021/05/24 11:32:23;;;;;;;2.35;0.77;;;;;;;20.74;39.88;98992.81;5013088;28;20056;-85
2021/05/24 11:34:51;;;;;;;3.38;1.00;;;;;;;20.74;41.08;98992.81;5012885;28;20050;-85
2021/05/24 11:37:21;;;;;;;3.15;0.60;;;;;;;20.72;41.19;98995.66;5012347;28;20537;-85
2021/05/24 11:39:50;;;;;;;2.80;0.70;;;;;;;20.70;41.17;98993.16;5012917;28;20137;-85
2021/05/24 11:42:27;;;;;;;2.03;0.85;;;;;;;20.69;40.59;98986.16;5013444;28;20472;-85